Aviation Digital Data Service (ADDS)

Output produced by TAFs form (0710 UTC 20 July 2018)
found at http://www.aviationweather.gov/adds/tafs/
 
METAR text: EHAM 200655Z 03007KT 360V070 9999 FEW020 19/14 Q1015 NOSIG
Conditions at: EHAM (AMSTERDAM/SCHIPH, NL) observed 0655 UTC 20 July 2018
Temperature: 19.0°C (66°F)
Dewpoint: 14.0°C (57°F) [RH = 73%]
Pressure (altimeter): 29.97 inches Hg (1015.0 mb)
Winds: from the NNE (30 degrees) at 8 MPH (7 knots; 3.6 m/s)
Visibility: 6 or more miles (10+ km)
Ceiling: at least 12,000 feet AGL
Clouds: few clouds at 2000 feet AGL
Weather: no significant weather observed at this time

Forecast for: EHAM (AMSTERDAM/SCHIPH, NL)
Text: TAF EHAM 200437Z 2006/2112 02005KT CAVOK
Forecast period: 0600 UTC 20 July 2018 to 1200 UTC 21 July 2018
Forecast type: FROM: standard forecast or significant change
Winds: from the NNE (20 degrees) at 6 MPH (5 knots; 2.6 m/s)
Visibility: 6 or more miles (10+ km)
Clouds: not forecast
Weather: NSW  (no significant weather)